sensor_id;sensor_type;location;lat;lon;timestamp;pressure;altitude;pressure_sealevel;temperature;humidity
80938;BME280;70395;51.382;7.074;2023-05-28T00:00:12;100876.03;;;25.40;36.05
80938;BME280;70395;51.382;7.074;2023-05-28T00:02:39;100884.28;;;25.40;35.85
80938;BME280;70395;51.382;7.074;2023-05-28T00:05:05;100883.44;;;25.40;35.48
80938;BME280;70395;51.382;7.074;2023-05-28T00:07:31;100877.09;;;25.39;35.69
80938;BME280;70395;51.382;7.074;2023-05-28T00:09:58;100871.59;;;25.39;35.68
80938;BME280;70395;51.382;7.074;2023-05-28T00:12:24;100877.34;;;25.38;35.37
80938;BME280;70395;51.382;7.074;2023-05-28T00:14:50;100873.75;;;25.37;35.35
80938;BME280;70395;51.382;7.074;2023-05-28T00:17:17;100873.75;;;25.37;35.49
80938;BME280;70395;51.382;7.074;2023-05-28T00:19:44;100879.25;;;25.37;35.84
80938;BME280;70395;51.382;7.074;2023-05-28T00:22:10;100869.34;;;25.36;35.96
80938;BME280;70395;51.382;7.074;2023-05-28T00:24:36;100875.66;;;25.37;35.38
80938;BME280;70395;51.382;7.074;2023-05-28T00:27:02;100869.34;;;25.36;35.82
80938;BME280;70395;51.382;7.074;2023-05-28T00:29:29;100870.41;;;25.35;35.50
80938;BME280;70395;51.382;7.074;2023-05-28T00:31:56;100874.00;;;25.36;35.53
80938;BME280;70395;51.382;7.074;2023-05-28T00:34:25;100864.91;;;25.35;35.55
80938;BME280;70395;51.382;7.074;2023-05-28T00:36:52;100864.06;;;25.35;35.64
80938;BME280;70395;51.382;7.074;2023-05-28T00:39:19;100868.50;;;25.36;35.42
80938;BME280;70395;51.382;7.074;2023-05-28T00:41:46;100861.31;;;25.35;35.50
80938;BME280;70395;51.382;7.074;2023-05-28T00:44:12;100864.91;;;25.35;35.19
80938;BME280;70395;51.382;7.074;2023-05-28T00:46:44;100858.84;;;25.33;35.67
80938;BME280;70395;51.382;7.074;2023-05-28T00:49:12;100856.94;;;25.34;35.70
80938;BME280;70395;51.382;7.074;2023-05-28T00:51:39;100862.41;;;25.34;35.21
80938;BME280;70395;51.382;7.074;2023-05-28T00:54:05;100856.94;;;25.34;35.08
80938;BME280;70395;51.382;7.074;2023-05-28T00:56:31;100859.66;;;25.34;35.30
80938;BME280;70395;51.382;7.074;2023-05-28T00:58:59;100862.41;;;25.34;35.49
80938;BME280;70395;51.382;7.074;2023-05-28T01:01:29;100860.72;;;25.33;35.14
80938;BME280;70395;51.382;7.074;2023-05-28T01:03:55;100857.38;;;25.30;35.22
80938;BME280;70395;51.382;7.074;2023-05-28T01:06:21;100858.22;;;25.31;35.89
80938;BME280;70395;51.382;7.074;2023-05-28T01:08:49;100858.44;;;25.29;35.53
80938;BME280;70395;51.382;7.074;2023-05-28T01:11:17;100861.19;;;25.29;35.83
80938;BME280;70395;51.382;7.074;2023-05-28T01:13:45;100857.38;;;25.30;35.40
80938;BME280;70395;51.382;7.074;2023-05-28T01:16:12;100856.53;;;25.30;35.63
80938;BME280;70395;51.382;7.074;2023-05-28T01:18:40;100867.31;;;25.32;35.58
80938;BME280;70395;51.382;7.074;2023-05-28T01:21:08;100862.88;;;25.30;35.02
80938;BME280;70395;51.382;7.074;2023-05-28T01:23:43;100862.28;;;25.28;35.33
80938;BME280;70395;51.382;7.074;2023-05-28T01:26:12;100852.94;;;25.29;35.09
80938;BME280;70395;51.382;7.074;2023-05-28T01:28:39;100856.53;;;25.30;35.56
80938;BME280;70395;51.382;7.074;2023-05-28T01:31:10;100853.78;;;25.30;35.41
80938;BME280;70395;51.382;7.074;2023-05-28T01:33:38;100856.31;;;25.32;35.31
80938;BME280;70395;51.382;7.074;2023-05-28T01:36:12;100854.03;;;25.28;35.26
80938;BME280;70395;51.382;7.074;2023-05-28T01:38:41;100846.66;;;25.29;35.45
80938;BME280;70395;51.382;7.074;2023-05-28T01:41:09;100851.91;;;25.30;35.75
80938;BME280;70395;51.382;7.074;2023-05-28T01:43:36;100841.97;;;25.29;35.37
80938;BME280;70395;51.382;7.074;2023-05-28T01:46:02;100841.97;;;25.29;35.01
80938;BME280;70395;51.382;7.074;2023-05-28T01:48:29;100838.41;;;25.29;35.25
80938;BME280;70395;51.382;7.074;2023-05-28T01:50:55;100834.84;;;25.28;35.59
80938;BME280;70395;51.382;7.074;2023-05-28T01:53:23;100833.16;;;25.27;35.13
80938;BME280;70395;51.382;7.074;2023-05-28T01:55:48;100833.16;;;25.27;35.25
80938;BME280;70395;51.382;7.074;2023-05-28T01:58:14;100827.66;;;25.27;35.59
80938;BME280;70395;51.382;7.074;2023-05-28T02:00:53;100825.16;;;25.26;35.24
80938;BME280;70395;51.382;7.074;2023-05-28T02:03:20;100827.66;;;25.27;35.35
80938;BME280;70395;51.382;7.074;2023-05-28T02:05:46;100818.56;;;25.27;35.81
80938;BME280;70395;51.382;7.074;2023-05-28T02:08:12;100819.66;;;25.26;35.29
80938;BME280;70395;51.382;7.074;2023-05-28T02:10:37;100816.91;;;25.26;35.24
80938;BME280;70395;51.382;7.074;2023-05-28T02:13:03;100823.25;;;25.26;35.68
80938;BME280;70395;51.382;7.074;2023-05-28T02:15:29;100816.06;;;25.25;35.71
80938;BME280;70395;51.382;7.074;2023-05-28T02:17:55;100823.47;;;25.25;34.99
80938;BME280;70395;51.382;7.074;2023-05-28T02:20:22;100814.41;;;25.24;35.59
80938;BME280;70395;51.382;7.074;2023-05-28T02:22:47;100809.75;;;25.25;35.20
80938;BME280;70395;51.382;7.074;2023-05-28T02:25:13;100812.50;;;25.25;35.41
80938;BME280;70395;51.382;7.074;2023-05-28T02:27:39;100822.66;;;25.24;35.46
80938;BME280;70395;51.382;7.074;2023-05-28T02:30:06;100823.47;;;25.25;35.69
80938;BME280;70395;51.382;7.074;2023-05-28T02:32:32;100824.56;;;25.24;35.24
80938;BME280;70395;51.382;7.074;2023-05-28T02:34:58;100826.69;;;25.22;35.12
80938;BME280;70395;51.382;7.074;2023-05-28T02:37:24;100831.09;;;25.23;35.18
80938;BME280;70395;51.382;7.074;2023-05-28T02:39:50;100832.19;;;25.22;35.13
80938;BME280;70395;51.382;7.074;2023-05-28T02:42:16;100831.34;;;25.21;35.66
80938;BME280;70395;51.382;7.074;2023-05-28T02:44:42;100835.13;;;25.20;34.97
80938;BME280;70395;51.382;7.074;2023-05-28T02:47:08;100831.34;;;25.21;35.34
80938;BME280;70395;51.382;7.074;2023-05-28T02:49:34;100831.34;;;25.21;35.34
80938;BME280;70395;51.382;7.074;2023-05-28T02:51:59;100826.06;;;25.19;35.35
80938;BME280;70395;51.382;7.074;2023-05-28T02:54:25;100830.50;;;25.21;34.80
80938;BME280;70395;51.382;7.074;2023-05-28T02:56:52;100824.41;;;25.18;34.78
80938;BME280;70395;51.382;7.074;2023-05-28T02:59:17;100822.50;;;25.19;35.57
80938;BME280;70395;51.382;7.074;2023-05-28T03:01:43;100818.06;;;25.18;34.92
80938;BME280;70395;51.382;7.074;2023-05-28T03:04:09;100812.59;;;25.18;35.33
80938;BME280;70395;51.382;7.074;2023-05-28T03:06:35;100813.66;;;25.17;35.63
80938;BME280;70395;51.382;7.074;2023-05-28T03:09:02;100812.59;;;25.18;35.16
80938;BME280;70395;51.382;7.074;2023-05-28T03:11:28;100814.50;;;25.17;35.36
80938;BME280;70395;51.382;7.074;2023-05-28T03:13:53;100819.13;;;25.17;34.94
80938;BME280;70395;51.382;7.074;2023-05-28T03:16:19;100826.31;;;25.18;34.77
80938;BME280;70395;51.382;7.074;2023-05-28T03:18:45;100827.38;;;25.17;35.51
80938;BME280;70395;51.382;7.074;2023-05-28T03:21:11;100832.84;;;25.17;35.29
80938;BME280;70395;51.382;7.074;2023-05-28T03:23:37;100838.34;;;25.17;35.41
80938;BME280;70395;51.382;7.074;2023-05-28T03:26:02;100837.53;;;25.16;34.86
80938;BME280;70395;51.382;7.074;2023-05-28T03:28:28;100837.53;;;25.16;35.31
80938;BME280;70395;51.382;7.074;2023-05-28T03:30:55;100829.28;;;25.16;34.75
80938;BME280;70395;51.382;7.074;2023-05-28T03:33:23;100834.78;;;25.16;35.27
80938;BME280;70395;51.382;7.074;2023-05-28T03:35:48;100836.69;;;25.16;35.35
80938;BME280;70395;51.382;7.074;2023-05-28T03:38:14;100831.44;;;25.14;35.37
80938;BME280;70395;51.382;7.074;2023-05-28T03:40:40;100839.66;;;25.14;35.29
80938;BME280;70395;51.382;7.074;2023-05-28T03:43:07;100828.91;;;25.13;34.66
80938;BME280;70395;51.382;7.074;2023-05-28T03:45:33;100828.91;;;25.13;35.18
80938;BME280;70395;51.382;7.074;2023-05-28T03:48:01;100834.38;;;25.13;35.16
80938;BME280;70395;51.382;7.074;2023-05-28T03:50:28;100824.50;;;25.12;34.91
80938;BME280;70395;51.382;7.074;2023-05-28T03:52:54;100829.16;;;25.11;34.88
80938;BME280;70395;51.382;7.074;2023-05-28T03:55:20;100827.25;;;25.12;34.84
80938;BME280;70395;51.382;7.074;2023-05-28T03:57:46;100840.13;;;25.11;35.04
80938;BME280;70395;51.382;7.074;2023-05-28T04:00:13;100840.13;;;25.11;35.44
80938;BME280;70395;51.382;7.074;2023-05-28T04:02:39;100834.63;;;25.11;34.71
80938;BME280;70395;51.382;7.074;2023-05-28T04:05:05;100837.59;;;25.10;34.97
80938;BME280;70395;51.382;7.074;2023-05-28T04:07:32;100839.53;;;25.09;35.19
80938;BME280;70395;51.382;7.074;2023-05-28T04:09:57;100838.66;;;25.08;34.59
80938;BME280;70395;51.382;7.074;2023-05-28T04:12:23;100836.78;;;25.09;34.82
80938;BME280;70395;51.382;7.074;2023-05-28T04:14:49;100830.44;;;25.08;34.78
80938;BME280;70395;51.382;7.074;2023-05-28T04:17:15;100837.00;;;25.07;34.72
80938;BME280;70395;51.382;7.074;2023-05-28T04:19:40;100840.56;;;25.08;34.85
80938;BME280;70395;51.382;7.074;2023-05-28T04:22:06;100834.25;;;25.07;35.18
80938;BME280;70395;51.382;7.074;2023-05-28T04:24:33;100843.31;;;25.08;34.85
80938;BME280;70395;51.382;7.074;2023-05-28T04:26:59;100839.72;;;25.07;34.85
80938;BME280;70395;51.382;7.074;2023-05-28T04:29:25;100839.72;;;25.07;35.03
80938;BME280;70395;51.382;7.074;2023-05-28T04:31:56;100832.78;;;25.05;34.83
80938;BME280;70395;51.382;7.074;2023-05-28T04:34:23;100836.38;;;25.05;35.01
80938;BME280;70395;51.382;7.074;2023-05-28T04:36:50;100846.50;;;25.05;34.71
80938;BME280;70395;51.382;7.074;2023-05-28T04:39:18;100844.84;;;25.04;34.84
80938;BME280;70395;51.382;7.074;2023-05-28T04:41:44;100848.44;;;25.04;34.86
80938;BME280;70395;51.382;7.074;2023-05-28T04:44:11;100849.25;;;25.05;35.29
80938;BME280;70395;51.382;7.074;2023-05-28T04:46:44;100852.25;;;25.03;35.06
80938;BME280;70395;51.382;7.074;2023-05-28T04:49:11;100847.59;;;25.04;34.81
80938;BME280;70395;51.382;7.074;2023-05-28T04:51:39;100857.47;;;25.05;35.27
80938;BME280;70395;51.382;7.074;2023-05-28T04:54:06;100853.09;;;25.04;34.73
80938;BME280;70395;51.382;7.074;2023-05-28T04:56:32;100855.81;;;25.04;34.61
80938;BME280;70395;51.382;7.074;2023-05-28T04:58:58;100855.81;;;25.04;35.26
80938;BME280;70395;51.382;7.074;2023-05-28T05:01:24;100860.47;;;25.03;35.03
80938;BME280;70395;51.382;7.074;2023-05-28T05:03:50;100852.38;;;25.08;34.93
80938;BME280;70395;51.382;7.074;2023-05-28T05:06:16;100863.88;;;25.17;34.92
80938;BME280;70395;51.382;7.074;2023-05-28T05:08:42;100862.28;;;25.28;34.94
80938;BME280;70395;51.382;7.074;2023-05-28T05:11:08;100863.75;;;25.43;34.87
80938;BME280;70395;51.382;7.074;2023-05-28T05:13:34;100857.25;;;25.56;34.61
80938;BME280;70395;51.382;7.074;2023-05-28T05:16:00;100857.50;;;25.67;34.79
80938;BME280;70395;51.382;7.074;2023-05-28T05:18:25;100859.97;;;25.75;34.37
80938;BME280;70395;51.382;7.074;2023-05-28T05:20:51;100863.19;;;25.84;34.52
80938;BME280;70395;51.382;7.074;2023-05-28T05:23:17;100867.50;;;25.92;34.26
80938;BME280;70395;51.382;7.074;2023-05-28T05:25:43;100860.72;;;25.94;34.49
80938;BME280;70395;51.382;7.074;2023-05-28T05:28:09;100860.25;;;25.97;34.48
80938;BME280;70395;51.382;7.074;2023-05-28T05:30:35;100863.59;;;26.00;34.36
80938;BME280;70395;51.382;7.074;2023-05-28T05:33:01;100864.19;;;26.02;34.54
80938;BME280;70395;51.382;7.074;2023-05-28T05:35:27;100865.88;;;26.03;34.21
80938;BME280;70395;51.382;7.074;2023-05-28T05:37:53;100862.28;;;26.02;34.50
80938;BME280;70395;51.382;7.074;2023-05-28T05:40:19;100869.44;;;26.03;34.30
80938;BME280;70395;51.382;7.074;2023-05-28T05:42:44;100866.69;;;26.03;34.33
80938;BME280;70395;51.382;7.074;2023-05-28T05:45:10;100873.03;;;26.04;34.59
80938;BME280;70395;51.382;7.074;2023-05-28T05:47:36;100867.31;;;26.05;34.48
80938;BME280;70395;51.382;7.074;2023-05-28T05:50:04;100876.63;;;26.04;34.39
80938;BME280;70395;51.382;7.074;2023-05-28T05:52:30;100880.22;;;26.05;33.95
80938;BME280;70395;51.382;7.074;2023-05-28T05:54:56;100881.88;;;26.06;34.28
80938;BME280;70395;51.382;7.074;2023-05-28T05:57:22;100881.06;;;26.05;34.08
80938;BME280;70395;51.382;7.074;2023-05-28T05:59:47;100884.84;;;26.04;34.19
80938;BME280;70395;51.382;7.074;2023-05-28T06:02:13;100882.34;;;26.03;33.73
80938;BME280;70395;51.382;7.074;2023-05-28T06:04:39;100881.72;;;26.01;33.78
80938;BME280;70395;51.382;7.074;2023-05-28T06:07:05;100883.66;;;26.00;33.87
80938;BME280;70395;51.382;7.074;2023-05-28T06:09:33;100875.88;;;25.97;33.91
80938;BME280;70395;51.382;7.074;2023-05-28T06:11:59;100871.44;;;25.96;33.88
80938;BME280;70395;51.382;7.074;2023-05-28T06:14:27;100874.06;;;25.91;33.45
80938;BME280;70395;51.382;7.074;2023-05-28T06:16:53;100873.44;;;25.77;33.78
80938;BME280;70395;51.382;7.074;2023-05-28T06:19:19;100874.47;;;25.63;33.58
80938;BME280;70395;51.382;7.074;2023-05-28T06:21:45;100874.88;;;25.48;34.03
80938;BME280;70395;51.382;7.074;2023-05-28T06:24:11;100867.06;;;25.33;33.87
80938;BME280;70395;51.382;7.074;2023-05-28T06:26:37;100865.91;;;25.22;33.82
80938;BME280;70395;51.382;7.074;2023-05-28T06:29:02;100867.91;;;25.15;34.39
80938;BME280;70395;51.382;7.074;2023-05-28T06:31:28;100863.13;;;25.10;34.21
80938;BME280;70395;51.382;7.074;2023-05-28T06:33:55;100868.84;;;25.08;34.29
80938;BME280;70395;51.382;7.074;2023-05-28T06:36:21;100861.47;;;25.09;34.55
80938;BME280;70395;51.382;7.074;2023-05-28T06:38:48;100865.88;;;25.10;34.51
80938;BME280;70395;51.382;7.074;2023-05-28T06:41:13;100866.47;;;25.12;34.27
80938;BME280;70395;51.382;7.074;2023-05-28T06:43:39;100867.91;;;25.15;34.67
80938;BME280;70395;51.382;7.074;2023-05-28T06:46:05;100868.31;;;25.18;34.29
80938;BME280;70395;51.382;7.074;2023-05-28T06:48:31;100869.97;;;25.19;34.43
80938;BME280;70395;51.382;7.074;2023-05-28T06:50:57;100875.00;;;25.23;34.44
80938;BME280;70395;51.382;7.074;2023-05-28T06:53:24;100878.13;;;25.26;34.77
80938;BME280;70395;51.382;7.074;2023-05-28T06:55:51;100878.72;;;25.28;34.80
80938;BME280;70395;51.382;7.074;2023-05-28T06:58:16;100882.31;;;25.29;34.59
80938;BME280;70395;51.382;7.074;2023-05-28T07:00:42;100888.16;;;25.33;35.15
80938;BME280;70395;51.382;7.074;2023-05-28T07:03:08;100876.94;;;25.34;34.52
80938;BME280;70395;51.382;7.074;2023-05-28T07:05:34;100880.31;;;25.36;35.21
80938;BME280;70395;51.382;7.074;2023-05-28T07:08:02;100885.56;;;25.38;34.51
80938;BME280;70395;51.382;7.074;2023-05-28T07:10:28;100888.06;;;25.39;34.82
80938;BME280;70395;51.382;7.074;2023-05-28T07:12:54;100886.78;;;25.42;34.90
80938;BME280;70395;51.382;7.074;2023-05-28T07:15:19;100890.13;;;25.44;34.80
80938;BME280;70395;51.382;7.074;2023-05-28T07:17:47;100886.91;;;25.47;34.98
80938;BME280;70395;51.382;7.074;2023-05-28T07:20:13;100891.97;;;25.50;35.00
80938;BME280;70395;51.382;7.074;2023-05-28T07:22:39;100892.31;;;25.54;35.32
80938;BME280;70395;51.382;7.074;2023-05-28T07:25:06;100895.44;;;25.58;35.14
80938;BME280;70395;51.382;7.074;2023-05-28T07:27:32;100905.13;;;25.60;34.97
80938;BME280;70395;51.382;7.074;2023-05-28T07:29:59;100892.00;;;25.62;35.42
80938;BME280;70395;51.382;7.074;2023-05-28T07:32:24;100900.59;;;25.66;35.39
80938;BME280;70395;51.382;7.074;2023-05-28T07:34:50;100905.88;;;25.68;35.35
80938;BME280;70395;51.382;7.074;2023-05-28T07:37:16;100898.22;;;25.70;35.68
80938;BME280;70395;51.382;7.074;2023-05-28T07:39:42;100906.22;;;25.71;35.66
80938;BME280;70395;51.382;7.074;2023-05-28T07:42:08;100889.56;;;25.73;35.18
80938;BME280;70395;51.382;7.074;2023-05-28T07:44:34;100886.31;;;25.76;35.40
80938;BME280;70395;51.382;7.074;2023-05-28T07:47:00;100896.25;;;25.77;35.19
80938;BME280;70395;51.382;7.074;2023-05-28T07:49:25;100896.00;;;25.79;35.26
80938;BME280;70395;51.382;7.074;2023-05-28T07:51:51;100902.94;;;25.81;35.34
80938;BME280;70395;51.382;7.074;2023-05-28T07:54:17;100898.91;;;25.84;35.58
80938;BME280;70395;51.382;7.074;2023-05-28T07:56:43;100899.50;;;25.86;35.47
80938;BME280;70395;51.382;7.074;2023-05-28T07:59:09;100902.88;;;25.88;35.78
80938;BME280;70395;51.382;7.074;2023-05-28T08:01:34;100897.13;;;25.90;35.37
80938;BME280;70395;51.382;7.074;2023-05-28T08:04:00;100905.72;;;25.93;35.70
80938;BME280;70395;51.382;7.074;2023-05-28T08:06:26;100903.59;;;25.95;35.54
80938;BME280;70395;51.382;7.074;2023-05-28T08:08:53;100905.00;;;25.98;35.68
80938;BME280;70395;51.382;7.074;2023-05-28T08:11:19;100900.38;;;25.98;35.66
80938;BME280;70395;51.382;7.074;2023-05-28T08:13:45;100891.06;;;26.00;35.52
80938;BME280;70395;51.382;7.074;2023-05-28T08:16:12;100889.38;;;25.98;35.02
80938;BME280;70395;51.382;7.074;2023-05-28T08:18:38;100890.47;;;25.97;35.39
80938;BME280;70395;51.382;7.074;2023-05-28T08:21:05;100901.44;;;25.97;35.11
80938;BME280;70395;51.382;7.074;2023-05-28T08:23:32;100893.44;;;25.96;35.18
80938;BME280;70395;51.382;7.074;2023-05-28T08:26:03;100883.53;;;25.95;35.69
80938;BME280;70395;51.382;7.074;2023-05-28T08:28:30;100876.59;;;25.92;35.40
80938;BME280;70395;51.382;7.074;2023-05-28T08:30:56;100882.94;;;25.93;35.76
80938;BME280;70395;51.382;7.074;2023-05-28T08:33:23;100886.50;;;25.93;35.50
80938;BME280;70395;51.382;7.074;2023-05-28T08:35:49;100886.28;;;25.95;35.55
80938;BME280;70395;51.382;7.074;2023-05-28T08:38:14;100873.38;;;25.95;35.24
80938;BME280;70395;51.382;7.074;2023-05-28T08:40:47;100870.63;;;25.95;34.85
80938;BME280;70395;51.382;7.074;2023-05-28T08:43:14;100869.56;;;25.96;35.66
80938;BME280;70395;51.382;7.074;2023-05-28T08:45:39;100869.56;;;25.96;35.59
80938;BME280;70395;51.382;7.074;2023-05-28T08:48:06;100871.44;;;25.96;35.69
80938;BME280;70395;51.382;7.074;2023-05-28T08:50:38;100863.22;;;25.96;35.38
80938;BME280;70395;51.382;7.074;2023-05-28T08:53:10;100859.41;;;25.97;35.12
80938;BME280;70395;51.382;7.074;2023-05-28T08:55:39;100866.34;;;26.00;35.26
80938;BME280;70395;51.382;7.074;2023-05-28T08:58:05;100861.69;;;26.00;35.29
80938;BME280;70395;51.382;7.074;2023-05-28T09:00:31;100857.84;;;26.01;35.04
80938;BME280;70395;51.382;7.074;2023-05-28T09:02:58;100855.69;;;26.03;34.96
80938;BME280;70395;51.382;7.074;2023-05-28T09:05:23;100859.28;;;26.04;35.00
80938;BME280;70395;51.382;7.074;2023-05-28T09:07:50;100853.78;;;26.04;35.29
80938;BME280;70395;51.382;7.074;2023-05-28T09:10:16;100842.59;;;26.05;35.09
80938;BME280;70395;51.382;7.074;2023-05-28T09:13:00;100843.06;;;26.02;35.25
80938;BME280;70395;51.382;7.074;2023-05-28T09:15:28;100848.91;;;26.06;35.28
80938;BME280;70395;51.382;7.074;2023-05-28T09:17:54;100847.00;;;26.06;35.44
80938;BME280;70395;51.382;7.074;2023-05-28T09:20:21;100842.34;;;26.07;34.91
80938;BME280;70395;51.382;7.074;2023-05-28T09:23:04;100850.84;;;26.05;35.28
80938;BME280;70395;51.382;7.074;2023-05-28T09:25:35;100851.44;;;26.07;35.27
80938;BME280;70395;51.382;7.074;2023-05-28T09:28:02;100850.13;;;26.10;34.90
80938;BME280;70395;51.382;7.074;2023-05-28T09:30:29;100848.19;;;26.11;34.86
80938;BME280;70395;51.382;7.074;2023-05-28T09:33:05;100841.88;;;26.10;35.17
80938;BME280;70395;51.382;7.074;2023-05-28T09:35:33;100841.38;;;26.13;34.66
80938;BME280;70395;51.382;7.074;2023-05-28T09:38:10;100835.28;;;26.11;35.07
80938;BME280;70395;51.382;7.074;2023-05-28T09:40:41;100835.06;;;26.13;34.79
80938;BME280;70395;51.382;7.074;2023-05-28T09:43:08;100840.31;;;26.14;35.03
80938;BME280;70395;51.382;7.074;2023-05-28T09:45:35;100832.66;;;26.16;34.88
